Alsen, ND

5:22 PM CDT on October 22, 2014 (GMT -0500)
Langdon | Change Station
CLOSE
Current Station
Airport
Location: Langdon,
Elevation: 1608 ft
Nearby Weather Stations

Elev 1608 ft 48.75 °N, 98.39 °W | Updated 7 minutes ago

Mostly Cloudy
Mostly Cloudy
54 °F
Feels Like 54 °F
N
13
Wind Variable Wind from SW

Today
High -- | Low -- °F
--% Chance of Precip.
Yesterday
High -- | Low -- °F
Precip. -- in
8:05 AM 6:31 PM
Waning Crescent, 1% visible
Pressure 29.76 in
Visibility 10.0 miles
Clouds Clear
Dew Point 50 °F
Humidity 88%
Rainfall 0.00 in
Snow Depth Not available.
UV 1 out of 12
Pollen 1.90 out of 12
Air Quality Not available.
Flu Activity Local Activity
METAR KD55 222215Z AUTO 22011KT 10SM CLR 12/10 A2976 RMK AO2

More Conditions Fewer Conditions

Pressure 29.76 in
Visibility 10.0 miles
Clouds Clear
Dew Point 50 °F
Humidity 88%
Rainfall 0.00 in
Snow Depth Not available.
UV 1 out of 12
Pollen 1.90 out of 12
Air Quality Not available.
Flu Activity Local Activity
METAR KD55 222215Z AUTO 22011KT 10SM CLR 12/10 A2976 RMK AO2

More Conditions Fewer Conditions

10-Day Weather Forecast

Almanac

Astronomy

Oct. 22, 2014 Rise Set
Actual Time 8:05 AM CDT 6:31 PM CDT
Civil Twilight 7:33 AM CDT 7:03 PM CDT
Nautical Twilight 6:56 AM CDT 7:40 PM CDT
Astronomical Twilight 6:20 AM CDT 8:16 PM CDT
Moon 6:42 AM CDT 6:03 PM CDT
Length of Visible Light 11h 30m
Length of Day
10h 26m
Tomorrow will be 3m 22s shorter.
Waning Crescent, 1% of the Moon is Illuminated
Today
Waning Crescent
Oct 23
New
Oct 30
First Quarter
Nov 6
Full
Nov 14
Last Quarter

Today's Extremes

State Highs State Lows

Community

WunderPhotos

Upload Photos

1,764,064 photos uploaded!

WunderBlogs® & News

Nearby

Snow Depth

Station Depth Elevation
No new snow has been reported.

Earthquake Activity

City Distance Mag. Time & Date
No recent earthquake activity has been reported nearby.
Minimum magnitude displayed is 2.5.

Coastal Water Temperatures

Place Temperature
No Stations Reporting

Nearby Weather Stations